createdAt,value
2017-09-01T00:00:39.236Z,12.43
2017-09-01T00:03:06.766Z,11.17
2017-09-01T00:05:34.305Z,9.57
2017-09-01T00:08:01.844Z,10.97
2017-09-01T00:10:29.397Z,10.70
2017-09-01T00:12:56.926Z,11.70
2017-09-01T00:15:24.490Z,11.23
2017-09-01T00:17:52.023Z,11.07
2017-09-01T00:20:19.578Z,11.10
2017-09-01T00:22:47.103Z,9.80
2017-09-01T00:25:14.660Z,11.90
2017-09-01T00:27:42.250Z,10.50
2017-09-01T00:30:09.806Z,11.03
2017-09-01T00:32:37.335Z,11.87
2017-09-01T00:35:04.886Z,10.33
2017-09-01T00:37:32.426Z,9.80
2017-09-01T00:39:59.994Z,10.60
2017-09-01T00:42:27.540Z,9.63
2017-09-01T00:44:55.090Z,9.50
2017-09-01T00:47:22.632Z,9.00
2017-09-01T00:49:50.221Z,8.57
2017-09-01T00:52:17.751Z,8.93
2017-09-01T00:54:45.310Z,9.10
2017-09-01T00:57:12.834Z,8.57
2017-09-01T00:59:40.531Z,9.53
2017-09-01T01:02:08.118Z,8.50
2017-09-01T01:04:35.691Z,8.40
2017-09-01T01:07:03.245Z,9.47
2017-09-01T01:09:30.778Z,9.90
2017-09-01T01:11:58.332Z,9.10
2017-09-01T01:14:25.963Z,9.37
2017-09-01T01:16:53.575Z,8.20
2017-09-01T01:19:21.142Z,9.60
2017-09-01T01:21:48.706Z,8.20
2017-09-01T01:24:16.239Z,8.53
2017-09-01T01:26:43.785Z,9.40
2017-09-01T01:29:11.480Z,10.40
2017-09-01T01:31:39.199Z,12.30
2017-09-01T01:34:13.386Z,11.50
2017-09-01T01:36:40.937Z,10.77
2017-09-01T01:39:08.623Z,10.77
2017-09-01T01:41:36.187Z,10.40
2017-09-01T01:44:03.727Z,8.67
2017-09-01T01:46:31.278Z,9.20
2017-09-01T01:48:58.807Z,11.10
2017-09-01T01:51:26.366Z,10.03
2017-09-01T01:53:53.900Z,9.87
2017-09-01T01:56:21.451Z,10.17
2017-09-01T01:58:48.983Z,10.07
2017-09-01T02:01:16.550Z,11.50
2017-09-01T02:03:44.087Z,10.20
2017-09-01T02:06:11.658Z,10.63
2017-09-01T02:08:39.195Z,11.47
2017-09-01T02:11:06.732Z,10.50
2017-09-01T02:13:34.292Z,12.03
2017-09-01T02:16:01.822Z,11.03
2017-09-01T02:18:29.383Z,10.60
2017-09-01T02:20:57.167Z,12.07
2017-09-01T02:23:24.726Z,13.50
2017-09-01T02:25:52.408Z,13.30
2017-09-01T02:28:20.279Z,12.43
2017-09-01T02:30:47.818Z,11.50
2017-09-01T02:33:15.376Z,10.87
2017-09-01T02:35:42.925Z,12.83
2017-09-01T02:38:10.483Z,12.13
2017-09-01T02:40:38.022Z,12.83
2017-09-01T02:43:06.059Z,12.23
2017-09-01T02:45:33.645Z,13.60
2017-09-01T02:48:01.235Z,12.57
2017-09-01T02:50:28.764Z,12.73
2017-09-01T02:52:56.340Z,12.83
2017-09-01T02:55:24.259Z,13.57
2017-09-01T02:57:52.107Z,15.03
2017-09-01T03:00:19.641Z,15.40
2017-09-01T03:02:47.208Z,14.10
2017-09-01T03:05:14.739Z,15.40
2017-09-01T03:07:42.298Z,14.43
2017-09-01T03:10:09.831Z,13.00
2017-09-01T03:12:37.364Z,11.80
2017-09-01T03:15:04.910Z,12.30
2017-09-01T03:17:32.431Z,13.30
2017-09-01T03:19:59.985Z,12.53
2017-09-01T03:22:27.518Z,12.20
2017-09-01T03:24:55.073Z,13.07
2017-09-01T03:27:22.602Z,12.80
2017-09-01T03:29:50.158Z,13.13
2017-09-01T03:32:17.690Z,13.30
2017-09-01T03:34:45.251Z,13.87
2017-09-01T03:37:12.783Z,14.23
2017-09-01T03:39:40.327Z,15.83
2017-09-01T03:42:07.854Z,13.20
2017-09-01T03:44:35.412Z,14.60
2017-09-01T03:47:02.942Z,14.03
2017-09-01T03:49:30.499Z,13.27
2017-09-01T03:51:58.030Z,14.03
2017-09-01T03:54:25.592Z,12.73
2017-09-01T03:56:53.118Z,11.07
2017-09-01T03:59:20.675Z,12.03
2017-09-01T04:01:48.207Z,11.97
2017-09-01T04:04:15.765Z,13.07
2017-09-01T04:06:43.305Z,12.30
2017-09-01T04:09:10.861Z,12.00
2017-09-01T04:11:38.391Z,12.37
2017-09-01T04:14:05.922Z,13.97
2017-09-01T04:16:33.475Z,12.10
2017-09-01T04:19:01.014Z,12.80
2017-09-01T04:21:28.575Z,12.20
2017-09-01T04:23:56.116Z,12.60
2017-09-01T04:26:23.670Z,11.43
2017-09-01T04:28:51.208Z,12.13
2017-09-01T04:31:18.766Z,11.97
2017-09-01T04:33:46.297Z,12.30
2017-09-01T04:36:13.847Z,11.70
2017-09-01T04:38:41.387Z,12.53
2017-09-01T04:41:08.942Z,11.03
2017-09-01T04:43:36.478Z,10.97
2017-09-01T04:46:04.029Z,11.40
2017-09-01T04:48:31.567Z,12.57
2017-09-01T04:50:59.141Z,11.43
2017-09-01T04:53:26.666Z,9.50
2017-09-01T04:55:54.218Z,11.37
2017-09-01T04:58:21.746Z,10.90
2017-09-01T05:00:49.302Z,13.03
2017-09-01T05:03:16.829Z,11.83
2017-09-01T05:05:44.378Z,12.07
2017-09-01T05:08:11.907Z,12.67
2017-09-01T05:10:39.475Z,11.47
2017-09-01T05:13:07.002Z,12.47
2017-09-01T05:15:34.533Z,12.00
2017-09-01T05:18:02.082Z,11.93
2017-09-01T05:20:29.619Z,10.20
2017-09-01T05:22:57.925Z,10.97
2017-09-01T05:25:25.479Z,10.00
2017-09-01T05:27:53.059Z,11.13
2017-09-01T05:30:20.614Z,11.40
2017-09-01T05:32:48.166Z,11.20
2017-09-01T05:35:15.694Z,9.60
2017-09-01T05:37:43.248Z,10.50
2017-09-01T05:40:10.785Z,10.33
2017-09-01T05:42:38.334Z,10.67
2017-09-01T05:45:05.887Z,12.70
2017-09-01T05:47:33.451Z,11.70
2017-09-01T05:50:00.982Z,11.40
2017-09-01T05:52:28.543Z,11.27
2017-09-01T05:54:56.076Z,10.67
2017-09-01T05:57:23.625Z,10.83
2017-09-01T05:59:51.154Z,12.30
2017-09-01T06:02:18.715Z,13.50
2017-09-01T06:04:46.254Z,12.73
2017-09-01T06:07:13.816Z,14.00
2017-09-01T06:09:41.358Z,11.63
2017-09-01T06:12:08.915Z,14.37
2017-09-01T06:14:36.451Z,13.50
2017-09-01T06:17:03.999Z,13.80
2017-09-01T06:19:31.555Z,12.50
2017-09-01T06:21:59.081Z,11.20
2017-09-01T06:24:26.639Z,12.50
2017-09-01T06:26:54.166Z,11.27
2017-09-01T06:29:21.718Z,11.33
2017-09-01T06:31:49.255Z,12.10
2017-09-01T06:34:16.827Z,10.83
2017-09-01T06:36:44.379Z,13.03
2017-09-01T06:39:11.947Z,11.27
2017-09-01T06:41:39.482Z,12.27
2017-09-01T06:44:07.050Z,12.50
2017-09-01T06:46:34.603Z,11.70
2017-09-01T06:49:02.162Z,13.33
2017-09-01T06:51:29.698Z,12.87
2017-09-01T06:53:57.258Z,12.63
2017-09-01T06:56:24.802Z,13.17
2017-09-01T06:58:52.358Z,14.20
2017-09-01T07:01:19.892Z,15.90
2017-09-01T07:03:47.447Z,16.23
2017-09-01T07:06:14.983Z,19.03
2017-09-01T07:08:42.543Z,17.87
2017-09-01T07:11:10.087Z,19.50
2017-09-01T07:13:37.654Z,18.90
2017-09-01T07:16:05.183Z,17.43
2017-09-01T07:18:32.711Z,17.57
2017-09-01T07:21:00.266Z,18.17
2017-09-01T07:23:27.791Z,17.43
2017-09-01T07:25:55.361Z,15.77
2017-09-01T07:28:22.900Z,14.63
2017-09-01T07:30:50.456Z,16.00
2017-09-01T07:33:17.990Z,16.90
2017-09-01T07:35:45.547Z,14.67
2017-09-01T07:38:13.087Z,15.53
2017-09-01T07:40:40.639Z,16.10
2017-09-01T07:43:08.171Z,14.70
2017-09-01T07:45:35.722Z,13.03
2017-09-01T07:48:03.247Z,14.70
2017-09-01T07:50:30.805Z,13.47
2017-09-01T07:52:58.359Z,13.13
2017-09-01T07:55:25.919Z,12.83
2017-09-01T07:57:53.446Z,12.17
2017-09-01T08:00:21.005Z,13.23
2017-09-01T08:02:48.531Z,12.77
2017-09-01T08:05:16.086Z,12.33
2017-09-01T08:07:43.619Z,11.30
2017-09-01T08:10:11.171Z,11.27
2017-09-01T08:12:38.704Z,12.73
2017-09-01T08:15:06.278Z,12.43
2017-09-01T08:17:33.814Z,12.10
2017-09-01T08:20:01.390Z,11.97
2017-09-01T08:22:28.942Z,11.90
2017-09-01T08:24:56.473Z,11.23
2017-09-01T08:27:24.022Z,11.90
2017-09-01T08:29:51.554Z,11.20
2017-09-01T08:32:19.110Z,10.70
2017-09-01T08:34:46.642Z,9.33
2017-09-01T08:37:14.202Z,10.73
2017-09-01T08:39:41.734Z,11.00
2017-09-01T08:42:09.287Z,9.77
2017-09-01T08:44:36.811Z,9.57
2017-09-01T08:47:04.360Z,9.80
2017-09-01T08:49:31.892Z,9.33
2017-09-01T08:51:59.443Z,7.83
2017-09-01T08:54:26.972Z,8.77
2017-09-01T08:56:54.542Z,8.07
2017-09-01T08:59:22.070Z,8.97
2017-09-01T09:01:49.621Z,8.70
2017-09-01T09:04:17.151Z,9.13
2017-09-01T09:06:44.703Z,8.50
2017-09-01T09:09:12.225Z,8.70
2017-09-01T09:11:39.782Z,8.40
2017-09-01T09:14:07.323Z,8.33
2017-09-01T09:16:34.895Z,9.20
2017-09-01T09:19:02.463Z,8.30
2017-09-01T09:21:29.992Z,7.10
2017-09-01T09:23:57.545Z,7.20
2017-09-01T09:26:25.073Z,7.10
2017-09-01T09:28:52.626Z,7.20
2017-09-01T09:31:20.449Z,8.20
2017-09-01T09:33:48.071Z,7.10
2017-09-01T09:36:15.607Z,6.00
2017-09-01T09:38:43.166Z,5.53
2017-09-01T09:41:10.686Z,5.67
2017-09-01T09:43:38.234Z,5.90
2017-09-01T09:46:05.758Z,5.90
2017-09-01T09:48:33.311Z,5.77
2017-09-01T09:51:00.836Z,4.83
2017-09-01T09:53:31.459Z,5.30
2017-09-01T09:55:58.979Z,4.63
2017-09-01T09:58:26.530Z,5.50
2017-09-01T10:00:54.078Z,5.10
2017-09-01T10:03:21.630Z,5.10
2017-09-01T10:05:49.156Z,5.03
2017-09-01T10:08:16.706Z,4.40
2017-09-01T10:10:44.242Z,5.57
2017-09-01T10:13:11.800Z,4.80
2017-09-01T10:15:39.403Z,4.40
2017-09-01T10:18:06.951Z,4.90
2017-09-01T10:20:34.481Z,4.40
2017-09-01T10:23:02.014Z,3.90
2017-09-01T10:25:29.564Z,4.73
2017-09-01T10:27:57.087Z,4.70
2017-09-01T10:30:24.636Z,4.57
2017-09-01T10:32:52.188Z,5.23
2017-09-01T10:35:19.748Z,4.23
2017-09-01T10:37:47.279Z,5.20
2017-09-01T10:40:14.831Z,5.03
2017-09-01T10:42:42.366Z,4.50
2017-09-01T10:45:09.914Z,4.23
2017-09-01T10:50:54.495Z,4.53
2017-09-01T10:53:34.606Z,3.90
2017-09-01T10:56:13.999Z,2.90
2017-09-01T10:58:41.522Z,3.90
2017-09-01T11:01:09.072Z,3.50
2017-09-01T11:03:36.606Z,3.70
2017-09-01T11:06:04.151Z,3.40
2017-09-01T11:08:31.675Z,3.10
2017-09-01T11:10:59.227Z,3.80
2017-09-01T11:13:26.754Z,3.60
2017-09-01T11:15:54.302Z,3.07
2017-09-01T11:18:21.822Z,3.90
2017-09-01T11:20:54.943Z,3.77
2017-09-01T11:23:28.162Z,3.90
2017-09-01T11:25:55.719Z,4.10
2017-09-01T11:28:23.246Z,4.50
2017-09-01T11:30:50.794Z,3.90
2017-09-01T11:33:18.327Z,3.70
2017-09-01T11:35:45.876Z,3.83
2017-09-01T11:38:14.161Z,4.00
2017-09-01T11:40:41.715Z,3.60
2017-09-01T11:43:09.243Z,3.90
2017-09-01T11:45:36.792Z,3.63
2017-09-01T11:48:04.324Z,3.47
2017-09-01T11:50:31.871Z,4.00
2017-09-01T11:52:59.399Z,3.40
2017-09-01T11:55:26.935Z,3.37
2017-09-01T11:57:54.478Z,3.37
2017-09-01T12:00:22.004Z,3.60
2017-09-01T12:02:49.558Z,3.77
2017-09-01T12:05:17.078Z,3.40
2017-09-01T12:07:44.625Z,3.90
2017-09-01T12:10:12.156Z,3.57
2017-09-01T12:12:39.704Z,3.73
2017-09-01T12:15:07.243Z,3.60
2017-09-01T12:17:34.799Z,3.90
2017-09-01T12:20:02.346Z,3.50
2017-09-01T12:22:29.909Z,3.43
2017-09-01T12:24:57.458Z,3.10
2017-09-01T12:27:25.008Z,3.97
2017-09-01T12:29:52.552Z,3.00
2017-09-01T12:32:20.096Z,3.60
2017-09-01T12:34:47.619Z,2.90
2017-09-01T12:37:15.161Z,3.13
2017-09-01T12:39:42.682Z,3.10
2017-09-01T12:42:10.231Z,3.17
2017-09-01T12:44:37.767Z,3.57
2017-09-01T12:47:05.315Z,3.70
2017-09-01T12:49:32.843Z,3.70
2017-09-01T12:52:00.367Z,3.20
2017-09-01T12:54:27.916Z,4.13
2017-09-01T12:56:55.447Z,2.77
2017-09-01T12:59:22.998Z,2.60
2017-09-01T13:01:50.522Z,2.57
2017-09-01T13:04:18.071Z,2.53
2017-09-01T13:06:45.594Z,2.50
2017-09-01T13:09:13.147Z,2.50
2017-09-01T13:11:40.666Z,2.90
2017-09-01T13:14:08.233Z,2.73
2017-09-01T13:16:35.768Z,2.30
2017-09-01T13:19:03.323Z,2.87
2017-09-01T13:21:30.856Z,2.20
2017-09-01T13:23:58.411Z,2.43
2017-09-01T13:26:25.938Z,2.43
2017-09-01T13:28:53.491Z,2.60
2017-09-01T13:31:21.014Z,2.07
2017-09-01T13:33:48.571Z,2.17
2017-09-01T13:36:16.090Z,2.63
2017-09-01T13:38:43.639Z,2.40
2017-09-01T13:41:11.163Z,2.33
2017-09-01T13:43:38.715Z,2.10
2017-09-01T13:46:06.239Z,2.23
2017-09-01T13:48:33.759Z,2.73
2017-09-01T13:51:02.076Z,2.73
2017-09-01T13:53:29.618Z,2.30
2017-09-01T13:55:57.183Z,2.10
2017-09-01T13:58:24.710Z,2.30
2017-09-01T14:00:52.258Z,2.33
2017-09-01T14:03:19.778Z,2.70
2017-09-01T14:05:47.326Z,2.70
2017-09-01T14:08:14.848Z,3.00
2017-09-01T14:10:42.409Z,2.47
2017-09-01T14:13:09.934Z,3.50
2017-09-01T14:15:37.489Z,2.67
2017-09-01T14:18:05.087Z,2.50
2017-09-01T14:20:32.635Z,2.90
2017-09-01T14:23:00.159Z,2.90
2017-09-01T14:25:27.708Z,2.93
2017-09-01T14:27:55.231Z,2.70
2017-09-01T14:30:22.772Z,2.60
2017-09-01T14:32:50.294Z,2.27
2017-09-01T14:35:17.842Z,2.27
2017-09-01T14:37:45.413Z,2.37
2017-09-01T14:40:12.970Z,2.10
2017-09-01T14:42:40.491Z,2.33
2017-09-01T14:45:08.014Z,2.50
2017-09-01T14:47:35.575Z,2.30
2017-09-01T14:50:03.105Z,2.70
2017-09-01T14:52:30.659Z,2.30
2017-09-01T14:54:58.194Z,3.03
2017-09-01T14:57:25.749Z,2.60
2017-09-01T14:59:53.265Z,3.60
2017-09-01T15:02:20.830Z,4.23
2017-09-01T15:04:48.363Z,4.73
2017-09-01T15:07:15.910Z,4.43
2017-09-01T15:09:43.436Z,4.57
2017-09-01T15:12:10.985Z,4.60
2017-09-01T15:14:38.511Z,4.10
2017-09-01T15:17:06.061Z,5.67
2017-09-01T15:19:33.583Z,5.70
2017-09-01T15:22:01.126Z,5.73
2017-09-01T15:24:28.655Z,5.20
2017-09-01T15:26:56.216Z,5.43
2017-09-01T15:29:23.749Z,5.60
2017-09-01T15:31:51.298Z,5.47
2017-09-01T15:34:18.822Z,5.03
2017-09-01T15:36:46.384Z,4.67
2017-09-01T15:39:13.911Z,4.97
2017-09-01T15:41:41.444Z,4.60
2017-09-01T15:44:08.983Z,4.70
2017-09-01T15:46:36.509Z,3.80
2017-09-01T15:49:04.059Z,3.57
2017-09-01T15:51:31.583Z,3.87
2017-09-01T15:53:59.136Z,3.20
2017-09-01T15:56:26.660Z,3.30
2017-09-01T15:58:54.207Z,2.90
2017-09-01T16:01:21.738Z,3.63
2017-09-01T16:03:49.304Z,3.20
2017-09-01T16:06:16.836Z,3.03
2017-09-01T16:08:44.386Z,3.43
2017-09-01T16:11:11.914Z,3.20
2017-09-01T16:13:39.475Z,3.13
2017-09-01T16:16:06.995Z,3.17
2017-09-01T16:18:34.543Z,2.87
2017-09-01T16:21:02.071Z,2.67
2017-09-01T16:23:29.623Z,3.00
2017-09-01T16:25:57.148Z,3.10
2017-09-01T16:28:24.708Z,2.57
2017-09-01T16:30:52.235Z,2.57
2017-09-01T16:33:19.792Z,2.80
2017-09-01T16:35:47.375Z,2.50
2017-09-01T16:38:14.946Z,2.60
2017-09-01T16:40:42.474Z,2.90
2017-09-01T16:43:09.999Z,2.50
2017-09-01T16:45:37.545Z,2.80
2017-09-01T16:48:05.066Z,2.10
2017-09-01T16:50:32.612Z,2.93
2017-09-01T16:53:00.139Z,2.20
2017-09-01T16:55:27.686Z,2.13
2017-09-01T16:57:55.214Z,2.23
2017-09-01T17:00:22.760Z,2.13
2017-09-01T17:02:50.278Z,2.27
2017-09-01T17:05:17.824Z,2.33
2017-09-01T17:07:45.355Z,2.20
2017-09-01T17:10:12.909Z,2.30
2017-09-01T17:12:40.435Z,2.40
2017-09-01T17:15:07.979Z,2.40
2017-09-01T17:17:35.506Z,2.40
2017-09-01T17:20:03.079Z,2.40
2017-09-01T17:22:30.607Z,2.73
2017-09-01T17:24:58.195Z,2.43
2017-09-01T17:27:25.726Z,2.40
2017-09-01T17:29:53.270Z,2.50
2017-09-01T17:32:20.802Z,2.73
2017-09-01T17:34:48.426Z,2.80
2017-09-01T17:37:15.951Z,2.70
2017-09-01T17:39:43.477Z,3.27
2017-09-01T17:42:11.018Z,3.00
2017-09-01T17:44:38.596Z,2.80
2017-09-01T17:47:06.146Z,2.70
2017-09-01T17:49:33.675Z,3.00
2017-09-01T17:52:01.228Z,3.53
2017-09-01T17:54:28.764Z,3.50
2017-09-01T17:56:56.310Z,3.77
2017-09-01T17:59:23.830Z,3.20
2017-09-01T18:01:51.379Z,2.90
2017-09-01T18:04:18.902Z,2.30
2017-09-01T18:06:46.454Z,2.93
2017-09-01T18:09:13.988Z,2.67
2017-09-01T18:11:41.538Z,2.43
2017-09-01T18:14:09.087Z,2.40
2017-09-01T18:16:36.647Z,3.20
2017-09-01T18:19:04.170Z,2.63
2017-09-01T18:21:31.723Z,2.30
2017-09-01T18:23:59.247Z,3.03
2017-09-01T18:26:26.810Z,2.20
2017-09-01T18:28:54.336Z,2.63
2017-09-01T18:31:21.883Z,2.53
2017-09-01T18:33:49.416Z,2.33
2017-09-01T18:36:16.970Z,2.70
2017-09-01T18:38:44.494Z,2.43
2017-09-01T18:41:12.019Z,2.50
2017-09-01T18:43:39.579Z,2.60
2017-09-01T18:46:07.109Z,2.83
2017-09-01T18:48:34.666Z,2.30
2017-09-01T18:51:02.198Z,2.50
2017-09-01T18:53:29.752Z,2.77
2017-09-01T18:55:57.273Z,2.67
2017-09-01T18:58:24.826Z,2.90
2017-09-01T19:00:52.345Z,2.57
2017-09-01T19:03:19.895Z,2.40
2017-09-01T19:05:47.418Z,2.53
2017-09-01T19:08:14.967Z,3.07
2017-09-01T19:10:42.495Z,2.50
2017-09-01T19:13:10.043Z,3.37
2017-09-01T19:15:37.572Z,3.00
2017-09-01T19:18:05.140Z,2.47
2017-09-01T19:20:32.668Z,3.00
2017-09-01T19:23:00.227Z,3.40
2017-09-01T19:25:41.663Z,2.33
2017-09-01T19:28:09.230Z,2.90
2017-09-01T19:30:36.762Z,2.97
2017-09-01T19:33:04.323Z,2.50
2017-09-01T19:35:31.854Z,2.80
2017-09-01T19:37:59.411Z,2.50
2017-09-01T19:40:26.955Z,2.60
2017-09-01T19:42:54.518Z,2.73
2017-09-01T19:45:22.046Z,2.30
2017-09-01T19:47:49.599Z,2.60
2017-09-01T19:50:17.165Z,2.80
2017-09-01T19:52:44.689Z,2.70
2017-09-01T19:55:12.235Z,2.67
2017-09-01T19:57:39.765Z,2.80
2017-09-01T20:00:07.318Z,2.90
2017-09-01T20:02:34.846Z,2.67
2017-09-01T20:05:02.399Z,2.83
2017-09-01T20:07:29.926Z,3.27
2017-09-01T20:09:57.475Z,3.03
2017-09-01T20:12:24.995Z,2.93
2017-09-01T20:14:52.553Z,2.80
2017-09-01T20:17:20.080Z,2.47
2017-09-01T20:19:47.644Z,3.10
2017-09-01T20:22:15.172Z,2.90
2017-09-01T20:24:42.731Z,2.93
2017-09-01T20:27:10.251Z,2.50
2017-09-01T20:29:37.807Z,2.83
2017-09-01T20:32:05.339Z,2.73
2017-09-01T20:34:32.904Z,2.77
2017-09-01T20:37:00.441Z,2.87
2017-09-01T20:39:28.007Z,2.50
2017-09-01T20:41:55.538Z,2.63
2017-09-01T20:44:23.100Z,2.47
2017-09-01T20:46:50.634Z,2.60
2017-09-01T20:49:18.171Z,2.67
2017-09-01T20:51:45.719Z,2.53
2017-09-01T20:54:13.288Z,2.50
2017-09-01T20:56:40.867Z,2.40
2017-09-01T20:59:08.452Z,2.40
2017-09-01T21:01:37.062Z,2.40
2017-09-01T21:04:04.638Z,2.50
2017-09-01T21:06:32.199Z,2.50
2017-09-01T21:08:59.786Z,2.87
2017-09-01T21:11:27.431Z,2.67
2017-09-01T21:13:54.959Z,2.90
2017-09-01T21:16:22.531Z,2.83
2017-09-01T21:18:50.070Z,3.07
2017-09-01T21:21:17.685Z,2.87
2017-09-01T21:23:45.226Z,2.90
2017-09-01T21:26:12.780Z,2.33
2017-09-01T21:28:40.322Z,2.40
2017-09-01T21:31:07.878Z,2.40
2017-09-01T21:33:36.328Z,2.87
2017-09-01T21:36:04.485Z,3.00
2017-09-01T21:38:32.090Z,2.47
2017-09-01T21:40:59.650Z,2.50
2017-09-01T21:43:27.184Z,2.33
2017-09-01T21:45:54.755Z,2.60
2017-09-01T21:48:22.279Z,2.33
2017-09-01T21:50:49.824Z,2.33
2017-09-01T21:53:17.373Z,2.50
2017-09-01T21:55:44.899Z,2.73
2017-09-01T21:58:12.459Z,2.37
2017-09-01T22:00:39.987Z,2.50
2017-09-01T22:03:07.543Z,2.80
2017-09-01T22:05:35.063Z,2.53
2017-09-01T22:08:02.611Z,2.63
2017-09-01T22:10:30.147Z,3.03
2017-09-01T22:12:57.702Z,2.63
2017-09-01T22:15:25.236Z,2.60
2017-09-01T22:17:52.786Z,2.87
2017-09-01T22:20:20.319Z,2.47
2017-09-01T22:22:47.883Z,2.70
2017-09-01T22:25:15.406Z,2.60
2017-09-01T22:27:42.960Z,2.97
2017-09-01T22:51:34.647Z,2.67
2017-09-01T22:54:02.199Z,2.60
2017-09-01T22:56:29.742Z,2.53
2017-09-01T22:58:57.294Z,2.60
2017-09-01T23:01:24.820Z,2.80
2017-09-01T23:03:52.367Z,2.80
2017-09-01T23:06:19.895Z,3.03
2017-09-01T23:08:47.460Z,3.20
2017-09-01T23:11:14.988Z,2.83
2017-09-01T23:13:42.535Z,2.33
2017-09-01T23:16:10.068Z,2.50
2017-09-01T23:18:37.619Z,2.90
2017-09-01T23:21:05.151Z,3.37
2017-09-01T23:23:40.290Z,2.60
2017-09-01T23:26:07.810Z,2.73
2017-09-01T23:28:35.363Z,2.40
2017-09-01T23:31:02.884Z,2.90
2017-09-01T23:33:30.439Z,2.97
2017-09-01T23:35:57.958Z,3.00
2017-09-01T23:38:25.486Z,3.10
2017-09-01T23:40:53.039Z,2.67
2017-09-01T23:43:20.567Z,3.33
2017-09-01T23:45:48.124Z,3.00
2017-09-01T23:48:15.647Z,2.80
2017-09-01T23:50:43.230Z,2.90
2017-09-01T23:53:10.750Z,2.87
2017-09-01T23:55:38.307Z,3.10
2017-09-01T23:58:05.834Z,2.60
